createdAt,value
2023-01-20T00:03:24.843Z,7.83
2023-01-20T00:08:26.565Z,7.27
2023-01-20T00:18:32.151Z,6.97
2023-01-20T00:23:34.259Z,7.43
2023-01-20T00:28:36.346Z,7.72
2023-01-20T00:33:38.101Z,7.03
2023-01-20T00:38:39.984Z,7.00
2023-01-20T00:43:42.473Z,7.63
2023-01-20T00:48:44.087Z,7.05
2023-01-20T00:53:45.848Z,8.30
2023-01-20T00:58:47.587Z,7.97
2023-01-20T01:03:49.304Z,7.90
2023-01-20T01:08:51.078Z,7.60
2023-01-20T01:13:55.748Z,7.57
2023-01-20T01:18:57.462Z,7.82
2023-01-20T01:23:59.593Z,7.93
2023-01-20T01:29:01.405Z,7.57
2023-01-20T01:34:03.062Z,8.07
2023-01-20T01:39:04.909Z,7.83
2023-01-20T01:44:06.787Z,8.00
2023-01-20T01:49:14.160Z,7.63
2023-01-20T01:54:21.917Z,8.75
2023-01-20T01:59:23.581Z,8.50
2023-01-20T02:04:27.948Z,7.43
2023-01-20T02:09:30.779Z,7.65
2023-01-20T02:14:41.286Z,7.25
2023-01-20T02:20:14.183Z,8.10
2023-01-20T02:31:08.769Z,6.95
2023-01-20T02:36:15.254Z,7.28
2023-01-20T02:41:35.259Z,7.40
2023-01-20T02:46:43.712Z,6.85
2023-01-20T02:52:01.908Z,7.25
2023-01-20T02:57:09.119Z,7.43
2023-01-20T03:02:16.130Z,7.95
2023-01-20T03:07:21.818Z,7.32
2023-01-20T03:12:54.143Z,8.20
2023-01-20T03:17:58.583Z,7.93
2023-01-20T03:23:02.329Z,7.80
2023-01-20T03:28:04.205Z,8.15
2023-01-20T03:33:06.230Z,7.70
2023-01-20T03:38:08.891Z,8.45
2023-01-20T03:43:22.798Z,8.55
2023-01-20T03:48:30.567Z,8.45
2023-01-20T03:54:09.613Z,9.45
2023-01-20T03:59:14.556Z,8.23
2023-01-20T04:04:19.096Z,8.38
2023-01-20T04:09:26.858Z,8.23
2023-01-20T04:14:28.508Z,8.10
2023-01-20T04:19:30.438Z,8.83
2023-01-20T04:24:40.551Z,8.45
2023-01-20T04:29:42.892Z,7.95
2023-01-20T04:34:44.666Z,8.00
2023-01-20T04:39:46.337Z,8.80
2023-01-20T04:44:48.231Z,8.87
2023-01-20T04:49:50.223Z,9.20
2023-01-20T04:54:51.817Z,9.75
2023-01-20T04:59:53.464Z,10.70
2023-01-20T05:04:55.202Z,9.40
2023-01-20T05:09:57.024Z,9.30
2023-01-20T05:14:58.628Z,9.63
2023-01-20T05:20:00.417Z,9.20
2023-01-20T05:25:02.046Z,9.80
2023-01-20T05:30:06.235Z,9.03
2023-01-20T05:35:08.754Z,9.63
2023-01-20T05:40:11.376Z,9.77
2023-01-20T05:45:13.686Z,9.90
2023-01-20T05:50:15.864Z,10.50
2023-01-20T05:55:17.583Z,10.95
2023-01-20T06:00:19.909Z,13.07
2023-01-20T06:05:22.420Z,12.63
2023-01-20T06:15:32.327Z,12.13
2023-01-20T06:20:34.025Z,12.57
2023-01-20T06:25:35.735Z,12.50
2023-01-20T06:30:38.116Z,11.27
2023-01-20T06:35:39.898Z,12.10
2023-01-20T06:40:41.548Z,13.10
2023-01-20T06:45:43.216Z,12.57
2023-01-20T06:50:44.906Z,12.10
2023-01-20T06:55:54.122Z,13.70
2023-01-20T07:00:56.830Z,13.82
2023-01-20T07:06:00.954Z,18.17
2023-01-20T07:11:02.663Z,16.02
2023-01-20T07:16:05.773Z,15.65
2023-01-20T07:21:11.619Z,14.32
2023-01-20T07:26:16.415Z,13.80
2023-01-20T07:31:21.554Z,15.15
2023-01-20T07:36:23.824Z,15.88
2023-01-20T07:41:25.799Z,13.55
2023-01-20T07:46:27.577Z,15.17
2023-01-20T07:51:29.312Z,14.77
2023-01-20T07:56:31.048Z,16.37
2023-01-20T08:01:33.194Z,16.67
2023-01-20T08:06:35.027Z,16.40
2023-01-20T08:11:36.788Z,17.57
2023-01-20T08:16:38.671Z,18.20
2023-01-20T08:21:40.324Z,18.47
2023-01-20T08:26:42.288Z,18.90
2023-01-20T08:31:44.098Z,18.53
2023-01-20T08:36:45.831Z,20.40
2023-01-20T08:41:48.359Z,20.50
2023-01-20T08:51:55.354Z,19.45
2023-01-20T09:01:58.515Z,20.88
2023-01-20T09:07:00.269Z,23.43
2023-01-20T09:12:03.344Z,24.53
2023-01-20T09:17:05.223Z,25.65
2023-01-20T09:22:06.934Z,28.20
2023-01-20T09:27:08.778Z,27.80
2023-01-20T09:32:12.958Z,29.83
2023-01-20T09:37:33.491Z,27.02
2023-01-20T09:43:23.550Z,28.13
2023-01-20T09:49:06.267Z,26.58
2023-01-20T09:54:23.412Z,30.33
2023-01-20T09:59:32.996Z,29.55
2023-01-20T10:04:46.695Z,29.33
2023-01-20T10:10:00.854Z,32.15
2023-01-20T10:15:15.787Z,31.58
2023-01-20T10:20:28.127Z,32.70
2023-01-20T10:25:33.500Z,32.67
2023-01-20T10:30:36.487Z,33.80
2023-01-20T10:35:48.019Z,34.65
2023-01-20T10:40:57.179Z,33.70
2023-01-20T10:46:01.836Z,33.25
2023-01-20T10:51:48.588Z,32.97
2023-01-20T10:56:55.570Z,36.10
2023-01-20T11:02:11.961Z,36.17
2023-01-20T11:07:18.925Z,34.72
2023-01-20T11:12:25.600Z,35.78
2023-01-20T11:17:27.332Z,34.22
2023-01-20T11:22:31.906Z,36.05
2023-01-20T11:27:45.839Z,36.42
2023-01-20T11:33:06.547Z,37.92
2023-01-20T11:38:26.139Z,34.97
2023-01-20T11:43:35.387Z,36.05
2023-01-20T11:48:37.092Z,34.75
2023-01-20T11:53:39.236Z,35.13
2023-01-20T11:58:55.371Z,35.97
2023-01-20T12:04:27.576Z,35.35
2023-01-20T12:09:40.051Z,34.13
2023-01-20T12:14:57.618Z,35.08
2023-01-20T12:20:10.829Z,33.38
2023-01-20T12:25:27.678Z,32.22
2023-01-20T12:30:47.782Z,34.58
2023-01-20T12:36:04.431Z,36.33
2023-01-20T12:41:13.488Z,37.28
2023-01-20T12:46:38.322Z,33.97
2023-01-20T12:52:00.950Z,37.13
2023-01-20T12:57:25.453Z,34.47
2023-01-20T13:02:58.545Z,34.22
2023-01-20T13:13:29.739Z,28.88
2023-01-20T13:18:43.856Z,27.85
2023-01-20T13:23:47.075Z,30.60
2023-01-20T13:28:56.691Z,31.50
2023-01-20T13:34:23.480Z,30.23
2023-01-20T13:39:42.992Z,34.25
2023-01-20T13:44:45.697Z,33.10
2023-01-20T13:49:52.198Z,30.25
2023-01-20T13:54:53.874Z,33.22
2023-01-20T13:59:56.157Z,31.27
2023-01-20T14:04:58.748Z,31.98
2023-01-20T14:15:03.670Z,29.80
2023-01-20T14:20:23.503Z,31.02
2023-01-20T14:25:26.827Z,31.00
2023-01-20T14:30:28.493Z,32.40
2023-01-20T14:35:33.484Z,34.25
2023-01-20T14:40:35.853Z,33.17
2023-01-20T14:45:37.935Z,33.28
2023-01-20T14:50:41.360Z,34.42
2023-01-20T14:55:56.218Z,34.90
2023-01-20T15:01:04.238Z,32.00
2023-01-20T15:06:09.248Z,31.83
2023-01-20T15:11:14.486Z,32.33
2023-01-20T15:16:46.659Z,29.33
2023-01-20T15:21:53.970Z,29.17
2023-01-20T15:26:58.187Z,30.60
2023-01-20T15:32:10.909Z,29.95
2023-01-20T15:42:19.095Z,26.98
2023-01-20T15:47:27.127Z,28.30
2023-01-20T15:52:32.253Z,27.65
2023-01-20T15:57:34.063Z,27.40
2023-01-20T16:02:35.827Z,28.33
2023-01-20T16:07:38.521Z,32.35
2023-01-20T16:17:42.448Z,29.00
2023-01-20T16:22:44.107Z,30.40
2023-01-20T16:27:45.992Z,31.23
2023-01-20T16:32:47.929Z,32.63
2023-01-20T16:37:49.722Z,26.77
2023-01-20T16:42:54.381Z,26.80
2023-01-20T16:47:56.913Z,29.00
2023-01-20T16:53:01.417Z,28.20
2023-01-20T16:58:03.105Z,23.83
2023-01-20T17:03:05.405Z,21.03
2023-01-20T17:08:07.188Z,17.92
2023-01-20T17:13:08.864Z,15.27
2023-01-20T17:18:10.573Z,15.60
2023-01-20T17:23:12.860Z,15.10
2023-01-20T17:28:14.669Z,13.97
2023-01-20T17:33:16.360Z,14.20
2023-01-20T17:38:18.154Z,14.07
2023-01-20T17:43:19.964Z,14.80
2023-01-20T17:48:21.809Z,14.53
2023-01-20T17:53:23.630Z,13.60
2023-01-20T17:58:25.342Z,16.27
2023-01-20T18:03:27.032Z,16.00
2023-01-20T18:08:28.697Z,16.37
2023-01-20T18:13:30.419Z,15.77
2023-01-20T18:18:32.094Z,15.90
2023-01-20T18:23:33.866Z,16.70
2023-01-20T18:28:36.216Z,16.05
2023-01-20T18:33:43.401Z,15.35
2023-01-20T18:38:49.676Z,14.57
2023-01-20T18:43:51.495Z,14.52
2023-01-20T18:48:54.583Z,16.10
2023-01-20T18:54:02.245Z,16.00
2023-01-20T18:59:05.454Z,17.98
2023-01-20T19:04:09.164Z,18.13
2023-01-20T19:09:11.650Z,17.88
2023-01-20T19:14:15.293Z,18.95
2023-01-20T19:19:20.017Z,18.80
2023-01-20T19:24:21.892Z,20.17
2023-01-20T19:29:23.630Z,19.80
2023-01-20T19:34:25.375Z,20.37
2023-01-20T19:39:27.598Z,20.97
2023-01-20T19:44:29.366Z,20.60
2023-01-20T19:49:31.234Z,20.33
2023-01-20T19:54:33.747Z,19.70
2023-01-20T19:59:35.767Z,20.23
2023-01-20T20:04:37.592Z,21.08
2023-01-20T20:09:39.278Z,19.67
2023-01-20T20:14:40.968Z,21.17
2023-01-20T20:19:42.595Z,22.07
2023-01-20T20:24:44.630Z,21.03
2023-01-20T20:29:46.316Z,20.98
2023-01-20T20:34:48.039Z,21.47
2023-01-20T20:39:49.750Z,21.57
2023-01-20T20:44:51.558Z,21.80
2023-01-20T20:49:53.216Z,23.93
2023-01-20T20:54:56.066Z,22.50
2023-01-20T20:59:59.668Z,22.55
2023-01-20T21:05:01.821Z,22.88
2023-01-20T21:10:04.957Z,22.92
2023-01-20T21:15:07.416Z,23.05
2023-01-20T21:20:10.290Z,23.20
2023-01-20T21:25:11.877Z,22.05
2023-01-20T21:30:13.784Z,21.70
2023-01-20T21:35:15.406Z,23.07
2023-01-20T21:40:17.509Z,22.50
2023-01-20T21:45:19.496Z,22.58
2023-01-20T21:50:39.773Z,24.63
2023-01-20T21:55:41.787Z,24.98
2023-01-20T22:00:43.703Z,23.98
2023-01-20T22:05:45.546Z,24.93
2023-01-20T22:10:55.513Z,22.30
2023-01-20T22:16:01.737Z,22.27
2023-01-20T22:21:05.499Z,24.40
2023-01-20T22:26:07.143Z,24.45
2023-01-20T22:31:11.873Z,24.73
2023-01-20T22:36:13.774Z,22.70
2023-01-20T22:41:15.924Z,24.23
2023-01-20T22:46:20.502Z,23.45
2023-01-20T22:51:24.876Z,21.98
2023-01-20T22:56:29.460Z,21.17
2023-01-20T23:01:33.553Z,21.90
2023-01-20T23:06:36.492Z,22.17
2023-01-20T23:11:39.876Z,22.13
2023-01-20T23:16:42.714Z,21.63
2023-01-20T23:21:44.571Z,20.77
2023-01-20T23:26:46.223Z,20.90
2023-01-20T23:31:47.983Z,22.83
2023-01-20T23:36:49.703Z,23.37
2023-01-20T23:41:51.527Z,22.37
2023-01-20T23:46:53.126Z,21.23
2023-01-20T23:51:55.072Z,22.25
2023-01-20T23:56:56.760Z,21.60
